sensor_id;sensor_type;location;lat;lon;timestamp;temperature;humidity
52273;DHT22;38227;50.942;4.016;2023-04-03T00:02:28;3.60;99.90
52273;DHT22;38227;50.942;4.016;2023-04-03T00:05:07;3.50;99.90
52273;DHT22;38227;50.942;4.016;2023-04-03T00:07:40;3.50;99.90
52273;DHT22;38227;50.942;4.016;2023-04-03T00:10:10;3.50;99.90
52273;DHT22;38227;50.942;4.016;2023-04-03T00:12:40;3.60;99.90
52273;DHT22;38227;50.942;4.016;2023-04-03T00:15:19;3.60;99.90
52273;DHT22;38227;50.942;4.016;2023-04-03T00:17:50;3.80;99.90
52273;DHT22;38227;50.942;4.016;2023-04-03T00:20:37;3.80;99.90
52273;DHT22;38227;50.942;4.016;2023-04-03T00:23:15;3.80;99.90
52273;DHT22;38227;50.942;4.016;2023-04-03T00:25:53;3.80;99.90
52273;DHT22;38227;50.942;4.016;2023-04-03T00:28:21;3.80;99.90
52273;DHT22;38227;50.942;4.016;2023-04-03T00:31:02;3.80;99.90
52273;DHT22;38227;50.942;4.016;2023-04-03T00:33:39;3.90;99.90
52273;DHT22;38227;50.942;4.016;2023-04-03T00:36:26;4.00;99.90
52273;DHT22;38227;50.942;4.016;2023-04-03T00:38:57;4.00;99.90
52273;DHT22;38227;50.942;4.016;2023-04-03T00:41:29;3.90;99.90
52273;DHT22;38227;50.942;4.016;2023-04-03T00:44:20;3.80;99.90
52273;DHT22;38227;50.942;4.016;2023-04-03T00:46:58;3.80;99.90
52273;DHT22;38227;50.942;4.016;2023-04-03T00:49:35;3.70;99.90
52273;DHT22;38227;50.942;4.016;2023-04-03T00:52:17;3.80;99.90
52273;DHT22;38227;50.942;4.016;2023-04-03T00:54:57;3.80;99.90
52273;DHT22;38227;50.942;4.016;2023-04-03T00:57:37;3.70;99.90
52273;DHT22;38227;50.942;4.016;2023-04-03T01:00:21;3.50;99.90
52273;DHT22;38227;50.942;4.016;2023-04-03T01:03:02;3.50;99.90
52273;DHT22;38227;50.942;4.016;2023-04-03T01:05:40;3.50;99.90
52273;DHT22;38227;50.942;4.016;2023-04-03T01:08:18;3.40;99.90
52273;DHT22;38227;50.942;4.016;2023-04-03T01:10:56;3.20;99.90
52273;DHT22;38227;50.942;4.016;2023-04-03T01:13:33;3.10;99.90
52273;DHT22;38227;50.942;4.016;2023-04-03T01:16:05;3.20;99.90
52273;DHT22;38227;50.942;4.016;2023-04-03T01:18:41;3.20;99.90
52273;DHT22;38227;50.942;4.016;2023-04-03T01:24:44;3.10;99.90
52273;DHT22;38227;50.942;4.016;2023-04-03T01:27:17;3.20;99.90
52273;DHT22;38227;50.942;4.016;2023-04-03T01:29:55;3.20;99.90
52273;DHT22;38227;50.942;4.016;2023-04-03T01:32:45;3.20;99.90
52273;DHT22;38227;50.942;4.016;2023-04-03T01:35:23;3.20;99.90
52273;DHT22;38227;50.942;4.016;2023-04-03T01:38:00;3.20;99.90
52273;DHT22;38227;50.942;4.016;2023-04-03T01:40:47;3.20;99.90
52273;DHT22;38227;50.942;4.016;2023-04-03T01:43:22;3.20;99.90
52273;DHT22;38227;50.942;4.016;2023-04-03T01:46:03;3.10;99.90
52273;DHT22;38227;50.942;4.016;2023-04-03T01:48:40;3.10;99.90
52273;DHT22;38227;50.942;4.016;2023-04-03T01:51:11;3.10;99.90
52273;DHT22;38227;50.942;4.016;2023-04-03T01:53:47;3.20;99.90
52273;DHT22;38227;50.942;4.016;2023-04-03T01:56:15;3.20;99.90
52273;DHT22;38227;50.942;4.016;2023-04-03T01:58:53;3.30;99.90
52273;DHT22;38227;50.942;4.016;2023-04-03T02:01:23;3.30;99.90
52273;DHT22;38227;50.942;4.016;2023-04-03T02:03:54;3.30;99.90
52273;DHT22;38227;50.942;4.016;2023-04-03T02:06:25;3.20;99.90
52273;DHT22;38227;50.942;4.016;2023-04-03T02:08:58;3.20;99.90
52273;DHT22;38227;50.942;4.016;2023-04-03T02:11:31;3.30;99.90
52273;DHT22;38227;50.942;4.016;2023-04-03T02:14:06;3.30;99.90
52273;DHT22;38227;50.942;4.016;2023-04-03T02:16:43;3.30;99.90
52273;DHT22;38227;50.942;4.016;2023-04-03T02:19:22;3.50;99.90
52273;DHT22;38227;50.942;4.016;2023-04-03T02:21:50;3.60;99.90
52273;DHT22;38227;50.942;4.016;2023-04-03T02:24:23;3.60;99.90
52273;DHT22;38227;50.942;4.016;2023-04-03T02:27:01;3.70;99.90
52273;DHT22;38227;50.942;4.016;2023-04-03T02:29:33;3.70;99.90
52273;DHT22;38227;50.942;4.016;2023-04-03T02:32:12;3.70;99.90
52273;DHT22;38227;50.942;4.016;2023-04-03T02:34:40;3.70;99.90
52273;DHT22;38227;50.942;4.016;2023-04-03T02:37:13;3.80;99.90
52273;DHT22;38227;50.942;4.016;2023-04-03T02:39:41;3.70;99.90
52273;DHT22;38227;50.942;4.016;2023-04-03T02:42:10;3.70;99.90
52273;DHT22;38227;50.942;4.016;2023-04-03T02:44:43;3.70;99.90
52273;DHT22;38227;50.942;4.016;2023-04-03T02:47:12;3.80;99.90
52273;DHT22;38227;50.942;4.016;2023-04-03T02:49:41;3.80;99.90
52273;DHT22;38227;50.942;4.016;2023-04-03T02:52:12;3.80;99.90
52273;DHT22;38227;50.942;4.016;2023-04-03T02:54:47;3.80;99.90
52273;DHT22;38227;50.942;4.016;2023-04-03T02:57:27;3.80;99.90
52273;DHT22;38227;50.942;4.016;2023-04-03T02:59:56;3.90;99.90
52273;DHT22;38227;50.942;4.016;2023-04-03T03:02:34;3.80;99.90
52273;DHT22;38227;50.942;4.016;2023-04-03T03:05:03;3.90;99.90
52273;DHT22;38227;50.942;4.016;2023-04-03T03:07:31;4.00;99.90
52273;DHT22;38227;50.942;4.016;2023-04-03T03:10:06;4.00;99.90
52273;DHT22;38227;50.942;4.016;2023-04-03T03:12:46;3.90;99.90
52273;DHT22;38227;50.942;4.016;2023-04-03T03:15:14;3.90;99.90
52273;DHT22;38227;50.942;4.016;2023-04-03T03:17:43;3.90;99.90
52273;DHT22;38227;50.942;4.016;2023-04-03T03:20:13;3.90;99.90
52273;DHT22;38227;50.942;4.016;2023-04-03T03:22:51;3.70;99.90
52273;DHT22;38227;50.942;4.016;2023-04-03T03:25:30;3.50;99.90
52273;DHT22;38227;50.942;4.016;2023-04-03T03:27:59;3.50;99.90
52273;DHT22;38227;50.942;4.016;2023-04-03T03:30:32;3.50;99.90
52273;DHT22;38227;50.942;4.016;2023-04-03T03:33:03;3.60;99.90
52273;DHT22;38227;50.942;4.016;2023-04-03T03:35:34;3.70;99.90
52273;DHT22;38227;50.942;4.016;2023-04-03T03:38:11;3.80;99.90
52273;DHT22;38227;50.942;4.016;2023-04-03T03:40:43;3.80;99.90
52273;DHT22;38227;50.942;4.016;2023-04-03T03:43:11;3.80;99.90
52273;DHT22;38227;50.942;4.016;2023-04-03T03:45:44;3.90;99.90
52273;DHT22;38227;50.942;4.016;2023-04-03T03:48:16;3.80;99.90
52273;DHT22;38227;50.942;4.016;2023-04-03T03:50:44;3.80;99.90
52273;DHT22;38227;50.942;4.016;2023-04-03T03:53:16;3.80;99.90
52273;DHT22;38227;50.942;4.016;2023-04-03T03:55:45;3.70;99.90
52273;DHT22;38227;50.942;4.016;2023-04-03T03:58:13;3.80;99.90
52273;DHT22;38227;50.942;4.016;2023-04-03T04:00:45;3.50;99.90
52273;DHT22;38227;50.942;4.016;2023-04-03T04:03:14;3.60;99.90
52273;DHT22;38227;50.942;4.016;2023-04-03T04:05:53;3.60;99.90
52273;DHT22;38227;50.942;4.016;2023-04-03T04:08:25;3.50;99.90
52273;DHT22;38227;50.942;4.016;2023-04-03T04:11:05;3.50;99.90
52273;DHT22;38227;50.942;4.016;2023-04-03T04:13:35;3.50;99.90
52273;DHT22;38227;50.942;4.016;2023-04-03T04:16:07;3.40;99.90
52273;DHT22;38227;50.942;4.016;2023-04-03T04:18:36;3.50;99.90
52273;DHT22;38227;50.942;4.016;2023-04-03T04:21:14;3.50;99.90
52273;DHT22;38227;50.942;4.016;2023-04-03T04:23:43;3.50;99.90
52273;DHT22;38227;50.942;4.016;2023-04-03T04:26:15;3.50;99.90
52273;DHT22;38227;50.942;4.016;2023-04-03T04:28:43;3.60;99.90
52273;DHT22;38227;50.942;4.016;2023-04-03T04:31:22;3.60;99.90
52273;DHT22;38227;50.942;4.016;2023-04-03T04:33:51;3.40;99.90
52273;DHT22;38227;50.942;4.016;2023-04-03T04:36:23;3.30;99.90
52273;DHT22;38227;50.942;4.016;2023-04-03T04:38:53;3.30;99.90
52273;DHT22;38227;50.942;4.016;2023-04-03T04:41:25;3.00;99.90
52273;DHT22;38227;50.942;4.016;2023-04-03T04:43:54;3.20;99.90
52273;DHT22;38227;50.942;4.016;2023-04-03T04:46:32;3.10;99.90
52273;DHT22;38227;50.942;4.016;2023-04-03T04:49:01;3.10;99.90
52273;DHT22;38227;50.942;4.016;2023-04-03T04:51:33;3.20;99.90
52273;DHT22;38227;50.942;4.016;2023-04-03T04:54:02;3.20;99.90
52273;DHT22;38227;50.942;4.016;2023-04-03T04:56:34;3.20;99.90
52273;DHT22;38227;50.942;4.016;2023-04-03T04:59:03;3.20;99.90
52273;DHT22;38227;50.942;4.016;2023-04-03T05:01:33;3.20;99.90
52273;DHT22;38227;50.942;4.016;2023-04-03T05:04:06;3.10;99.90
52273;DHT22;38227;50.942;4.016;2023-04-03T05:06:35;3.20;99.90
52273;DHT22;38227;50.942;4.016;2023-04-03T05:09:03;3.30;99.90
52273;DHT22;38227;50.942;4.016;2023-04-03T05:11:35;3.20;99.90
52273;DHT22;38227;50.942;4.016;2023-04-03T05:14:18;3.20;99.90
52273;DHT22;38227;50.942;4.016;2023-04-03T05:16:52;3.30;99.90
52273;DHT22;38227;50.942;4.016;2023-04-03T05:19:32;3.20;99.90
52273;DHT22;38227;50.942;4.016;2023-04-03T05:22:03;3.20;99.90
52273;DHT22;38227;50.942;4.016;2023-04-03T05:24:40;3.30;99.90
52273;DHT22;38227;50.942;4.016;2023-04-03T05:27:27;3.30;99.90
52273;DHT22;38227;50.942;4.016;2023-04-03T05:29:56;3.40;99.90
52273;DHT22;38227;50.942;4.016;2023-04-03T05:32:36;3.40;99.90
52273;DHT22;38227;50.942;4.016;2023-04-03T05:35:06;3.70;99.90
52273;DHT22;38227;50.942;4.016;2023-04-03T05:37:35;3.70;99.90
52273;DHT22;38227;50.942;4.016;2023-04-03T05:40:05;3.70;99.90
52273;DHT22;38227;50.942;4.016;2023-04-03T05:42:40;3.80;99.90
52273;DHT22;38227;50.942;4.016;2023-04-03T05:45:09;3.70;99.90
52273;DHT22;38227;50.942;4.016;2023-04-03T05:47:47;3.70;99.90
52273;DHT22;38227;50.942;4.016;2023-04-03T05:50:16;3.80;99.90
52273;DHT22;38227;50.942;4.016;2023-04-03T05:52:49;4.00;99.90
52273;DHT22;38227;50.942;4.016;2023-04-03T05:55:20;4.10;99.90
52273;DHT22;38227;50.942;4.016;2023-04-03T05:57:52;4.00;99.90
52273;DHT22;38227;50.942;4.016;2023-04-03T06:00:20;4.10;99.90
52273;DHT22;38227;50.942;4.016;2023-04-03T06:02:50;4.10;99.90
52273;DHT22;38227;50.942;4.016;2023-04-03T06:05:31;4.10;99.90
52273;DHT22;38227;50.942;4.016;2023-04-03T06:08:08;4.10;99.90
52273;DHT22;38227;50.942;4.016;2023-04-03T06:10:39;4.10;99.90
52273;DHT22;38227;50.942;4.016;2023-04-03T06:13:20;4.20;99.90
52273;DHT22;38227;50.942;4.016;2023-04-03T06:15:54;4.40;99.90
52273;DHT22;38227;50.942;4.016;2023-04-03T06:18:25;4.40;99.90
52273;DHT22;38227;50.942;4.016;2023-04-03T06:21:06;4.60;99.90
52273;DHT22;38227;50.942;4.016;2023-04-03T06:23:41;4.60;99.90
52273;DHT22;38227;50.942;4.016;2023-04-03T06:26:18;4.70;99.90
52273;DHT22;38227;50.942;4.016;2023-04-03T06:28:50;4.80;99.90
52273;DHT22;38227;50.942;4.016;2023-04-03T06:31:19;4.90;99.90
52273;DHT22;38227;50.942;4.016;2023-04-03T06:33:52;5.00;99.90
52273;DHT22;38227;50.942;4.016;2023-04-03T06:36:20;5.10;99.90
52273;DHT22;38227;50.942;4.016;2023-04-03T06:38:52;5.20;99.90
52273;DHT22;38227;50.942;4.016;2023-04-03T06:41:20;5.40;99.90
52273;DHT22;38227;50.942;4.016;2023-04-03T06:43:53;5.90;99.90
52273;DHT22;38227;50.942;4.016;2023-04-03T06:46:24;8.20;99.90
52273;DHT22;38227;50.942;4.016;2023-04-03T06:48:58;11.00;99.90
52273;DHT22;38227;50.942;4.016;2023-04-03T06:51:29;13.50;99.30
52273;DHT22;38227;50.942;4.016;2023-04-03T06:54:04;15.90;94.30
52273;DHT22;38227;50.942;4.016;2023-04-03T06:56:33;18.20;90.20
52273;DHT22;38227;50.942;4.016;2023-04-03T06:59:02;19.70;81.40
52273;DHT22;38227;50.942;4.016;2023-04-03T07:01:30;20.00;74.20
52273;DHT22;38227;50.942;4.016;2023-04-03T07:04:03;19.90;71.00
52273;DHT22;38227;50.942;4.016;2023-04-03T07:06:32;19.50;69.70
52273;DHT22;38227;50.942;4.016;2023-04-03T07:09:04;19.80;70.50
52273;DHT22;38227;50.942;4.016;2023-04-03T07:11:40;19.30;70.50
52273;DHT22;38227;50.942;4.016;2023-04-03T07:14:20;19.70;67.10
52273;DHT22;38227;50.942;4.016;2023-04-03T07:16:49;19.70;67.00
52273;DHT22;38227;50.942;4.016;2023-04-03T07:19:27;19.50;69.10
52273;DHT22;38227;50.942;4.016;2023-04-03T07:21:56;19.80;67.50
52273;DHT22;38227;50.942;4.016;2023-04-03T07:24:34;19.90;67.10
52273;DHT22;38227;50.942;4.016;2023-04-03T07:27:04;20.00;65.40
52273;DHT22;38227;50.942;4.016;2023-04-03T07:29:37;19.20;67.30
52273;DHT22;38227;50.942;4.016;2023-04-03T07:32:27;19.70;65.80
52273;DHT22;38227;50.942;4.016;2023-04-03T07:35:00;19.40;67.70
52273;DHT22;38227;50.942;4.016;2023-04-03T07:37:29;18.80;67.60
52273;DHT22;38227;50.942;4.016;2023-04-03T07:39:58;19.20;67.00
52273;DHT22;38227;50.942;4.016;2023-04-03T07:42:33;20.00;65.00
52273;DHT22;38227;50.942;4.016;2023-04-03T07:45:05;19.10;67.90
52273;DHT22;38227;50.942;4.016;2023-04-03T07:47:45;19.90;66.60
52273;DHT22;38227;50.942;4.016;2023-04-03T07:50:15;20.00;64.70
52273;DHT22;38227;50.942;4.016;2023-04-03T07:52:43;19.80;66.00
52273;DHT22;38227;50.942;4.016;2023-04-03T07:55:21;19.60;66.20
52273;DHT22;38227;50.942;4.016;2023-04-03T07:57:50;19.90;65.70
52273;DHT22;38227;50.942;4.016;2023-04-03T08:00:19;19.30;66.30
52273;DHT22;38227;50.942;4.016;2023-04-03T08:02:51;19.40;66.90
52273;DHT22;38227;50.942;4.016;2023-04-03T08:05:20;20.30;63.20
52273;DHT22;38227;50.942;4.016;2023-04-03T08:07:52;20.20;64.00
52273;DHT22;38227;50.942;4.016;2023-04-03T08:10:20;19.10;66.90
52273;DHT22;38227;50.942;4.016;2023-04-03T08:12:49;18.70;67.10
52273;DHT22;38227;50.942;4.016;2023-04-03T08:15:23;19.40;65.80
52273;DHT22;38227;50.942;4.016;2023-04-03T08:17:52;19.30;66.80
52273;DHT22;38227;50.942;4.016;2023-04-03T08:20:31;20.20;62.70
52273;DHT22;38227;50.942;4.016;2023-04-03T08:23:00;19.80;63.00
52273;DHT22;38227;50.942;4.016;2023-04-03T08:25:33;20.00;62.50
52273;DHT22;38227;50.942;4.016;2023-04-03T08:28:02;20.20;60.90
52273;DHT22;38227;50.942;4.016;2023-04-03T08:30:40;20.20;60.50
52273;DHT22;38227;50.942;4.016;2023-04-03T08:33:08;20.30;60.20
52273;DHT22;38227;50.942;4.016;2023-04-03T08:35:41;20.10;62.20
52273;DHT22;38227;50.942;4.016;2023-04-03T08:38:11;20.10;61.00
52273;DHT22;38227;50.942;4.016;2023-04-03T08:40:41;19.50;63.00
52273;DHT22;38227;50.942;4.016;2023-04-03T08:44:20;19.20;64.60
52273;DHT22;38227;50.942;4.016;2023-04-03T08:49:38;19.40;63.70
52273;DHT22;38227;50.942;4.016;2023-04-03T08:52:17;20.10;62.10
52273;DHT22;38227;50.942;4.016;2023-04-03T08:54:51;20.70;61.80
52273;DHT22;38227;50.942;4.016;2023-04-03T08:57:34;19.90;62.60
52273;DHT22;38227;50.942;4.016;2023-04-03T09:00:09;18.70;64.70
52273;DHT22;38227;50.942;4.016;2023-04-03T09:03:04;19.20;64.60
52273;DHT22;38227;50.942;4.016;2023-04-03T09:05:51;19.50;63.60
52273;DHT22;38227;50.942;4.016;2023-04-03T09:08:31;19.60;62.70
52273;DHT22;38227;50.942;4.016;2023-04-03T09:17:53;19.60;60.70
52273;DHT22;38227;50.942;4.016;2023-04-03T09:20:05;19.80;60.30
52273;DHT22;38227;50.942;4.016;2023-04-03T09:22:40;20.20;58.70
52273;DHT22;38227;50.942;4.016;2023-04-03T09:25:25;19.20;59.80
52273;DHT22;38227;50.942;4.016;2023-04-03T09:27:54;18.00;64.60
52273;DHT22;38227;50.942;4.016;2023-04-03T09:30:27;18.10;61.60
52273;DHT22;38227;50.942;4.016;2023-04-03T09:32:56;17.90;63.20
52273;DHT22;38227;50.942;4.016;2023-04-03T09:35:31;18.40;61.10
52273;DHT22;38227;50.942;4.016;2023-04-03T09:41:18;19.60;58.40
52273;DHT22;38227;50.942;4.016;2023-04-03T09:43:54;19.30;58.70
52273;DHT22;38227;50.942;4.016;2023-04-03T09:46:34;19.00;60.80
52273;DHT22;38227;50.942;4.016;2023-04-03T09:49:05;18.70;60.30
52273;DHT22;38227;50.942;4.016;2023-04-03T09:51:35;19.10;57.80
52273;DHT22;38227;50.942;4.016;2023-04-03T09:54:30;19.20;57.70
52273;DHT22;38227;50.942;4.016;2023-04-03T09:57:12;18.80;60.40
52273;DHT22;38227;50.942;4.016;2023-04-03T10:00:03;19.00;60.20
52273;DHT22;38227;50.942;4.016;2023-04-03T10:02:41;18.90;61.90
52273;DHT22;38227;50.942;4.016;2023-04-03T10:05:37;19.60;58.30
52273;DHT22;38227;50.942;4.016;2023-04-03T10:11:16;19.30;59.40
52273;DHT22;38227;50.942;4.016;2023-04-03T10:13:54;18.70;60.10
52273;DHT22;38227;50.942;4.016;2023-04-03T10:16:36;18.20;61.70
52273;DHT22;38227;50.942;4.016;2023-04-03T10:26:32;17.10;61.10
52273;DHT22;38227;50.942;4.016;2023-04-03T10:32:45;15.30;66.60
52273;DHT22;38227;50.942;4.016;2023-04-03T10:51:52;13.70;68.30
52273;DHT22;38227;50.942;4.016;2023-04-03T10:54:31;13.50;68.80
52273;DHT22;38227;50.942;4.016;2023-04-03T10:57:05;13.10;70.60
52273;DHT22;38227;50.942;4.016;2023-04-03T10:59:57;13.30;70.80
52273;DHT22;38227;50.942;4.016;2023-04-03T11:02:37;13.30;72.90
52273;DHT22;38227;50.942;4.016;2023-04-03T11:11:34;12.80;67.90
52273;DHT22;38227;50.942;4.016;2023-04-03T11:14:34;12.40;68.20
52273;DHT22;38227;50.942;4.016;2023-04-03T11:17:40;12.30;69.30
52273;DHT22;38227;50.942;4.016;2023-04-03T11:20:28;12.40;69.90
52273;DHT22;38227;50.942;4.016;2023-04-03T11:26:18;12.60;67.60
52273;DHT22;38227;50.942;4.016;2023-04-03T11:28:51;12.70;65.80
52273;DHT22;38227;50.942;4.016;2023-04-03T11:34:47;12.30;66.40
52273;DHT22;38227;50.942;4.016;2023-04-03T11:37:38;12.50;65.60
52273;DHT22;38227;50.942;4.016;2023-04-03T11:40:30;12.60;64.30
52273;DHT22;38227;50.942;4.016;2023-04-03T11:43:37;12.80;68.80
52273;DHT22;38227;50.942;4.016;2023-04-03T11:46:10;12.70;65.90
52273;DHT22;38227;50.942;4.016;2023-04-03T11:48:45;12.70;68.40
52273;DHT22;38227;50.942;4.016;2023-04-03T11:51:47;12.60;68.20
52273;DHT22;38227;50.942;4.016;2023-04-03T11:54:45;12.60;66.00
52273;DHT22;38227;50.942;4.016;2023-04-03T12:01:10;12.60;67.00
52273;DHT22;38227;50.942;4.016;2023-04-03T12:04:08;12.40;66.30
52273;DHT22;38227;50.942;4.016;2023-04-03T12:10:13;12.20;66.20
52273;DHT22;38227;50.942;4.016;2023-04-03T12:12:43;12.40;67.00
52273;DHT22;38227;50.942;4.016;2023-04-03T12:15:41;12.40;65.90
52273;DHT22;38227;50.942;4.016;2023-04-03T12:22:07;12.30;64.90
52273;DHT22;38227;50.942;4.016;2023-04-03T12:24:46;12.30;64.40
52273;DHT22;38227;50.942;4.016;2023-04-03T12:27:43;12.40;64.80
52273;DHT22;38227;50.942;4.016;2023-04-03T12:30:21;12.40;65.40
52273;DHT22;38227;50.942;4.016;2023-04-03T12:36:18;12.40;61.40
52273;DHT22;38227;50.942;4.016;2023-04-03T12:45:16;12.10;63.80
52273;DHT22;38227;50.942;4.016;2023-04-03T12:47:48;12.10;63.50
52273;DHT22;38227;50.942;4.016;2023-04-03T12:50:32;12.00;63.90
52273;DHT22;38227;50.942;4.016;2023-04-03T12:53:44;11.90;63.70
52273;DHT22;38227;50.942;4.016;2023-04-03T12:55:58;11.90;64.30
52273;DHT22;38227;50.942;4.016;2023-04-03T12:58:45;12.00;63.80
52273;DHT22;38227;50.942;4.016;2023-04-03T13:01:19;12.00;62.80
52273;DHT22;38227;50.942;4.016;2023-04-03T13:03:54;12.00;62.40
52273;DHT22;38227;50.942;4.016;2023-04-03T13:06:43;12.00;60.80
52273;DHT22;38227;50.942;4.016;2023-04-03T13:09:30;12.20;58.90
52273;DHT22;38227;50.942;4.016;2023-04-03T13:12:17;12.20;59.70
52273;DHT22;38227;50.942;4.016;2023-04-03T13:15:01;12.30;59.30
52273;DHT22;38227;50.942;4.016;2023-04-03T13:17:30;12.40;58.10
52273;DHT22;38227;50.942;4.016;2023-04-03T13:20:28;12.40;59.00
52273;DHT22;38227;50.942;4.016;2023-04-03T13:23:11;12.50;58.20
52273;DHT22;38227;50.942;4.016;2023-04-03T13:25:46;12.50;57.70
52273;DHT22;38227;50.942;4.016;2023-04-03T13:28:24;12.30;59.00
52273;DHT22;38227;50.942;4.016;2023-04-03T13:31:13;12.30;59.20
52273;DHT22;38227;50.942;4.016;2023-04-03T13:34:16;12.10;59.70
52273;DHT22;38227;50.942;4.016;2023-04-03T13:37:28;12.20;59.50
52273;DHT22;38227;50.942;4.016;2023-04-03T13:43:14;12.20;59.70
52273;DHT22;38227;50.942;4.016;2023-04-03T13:48:49;12.40;59.50
52273;DHT22;38227;50.942;4.016;2023-04-03T13:51:30;12.30;57.80
52273;DHT22;38227;50.942;4.016;2023-04-03T13:57:16;12.30;58.30
52273;DHT22;38227;50.942;4.016;2023-04-03T14:00:30;12.30;59.10
52273;DHT22;38227;50.942;4.016;2023-04-03T14:06:27;12.20;57.40
52273;DHT22;38227;50.942;4.016;2023-04-03T14:08:59;12.30;58.20
52273;DHT22;38227;50.942;4.016;2023-04-03T14:11:31;12.20;59.20
52273;DHT22;38227;50.942;4.016;2023-04-03T14:14:29;12.30;58.40
52273;DHT22;38227;50.942;4.016;2023-04-03T14:17:01;12.20;57.30
52273;DHT22;38227;50.942;4.016;2023-04-03T14:19:35;12.30;57.40
52273;DHT22;38227;50.942;4.016;2023-04-03T14:22:27;12.30;57.80
52273;DHT22;38227;50.942;4.016;2023-04-03T14:24:56;12.30;59.00
52273;DHT22;38227;50.942;4.016;2023-04-03T14:27:43;12.40;60.50
52273;DHT22;38227;50.942;4.016;2023-04-03T14:30:34;12.30;59.60
52273;DHT22;38227;50.942;4.016;2023-04-03T14:33:05;12.10;59.70
52273;DHT22;38227;50.942;4.016;2023-04-03T14:35:37;12.00;59.30
52273;DHT22;38227;50.942;4.016;2023-04-03T14:38:30;12.00;59.00
52273;DHT22;38227;50.942;4.016;2023-04-03T14:40:59;12.00;59.60
52273;DHT22;38227;50.942;4.016;2023-04-03T14:43:31;12.10;59.60
52273;DHT22;38227;50.942;4.016;2023-04-03T14:46:12;12.00;59.50
52273;DHT22;38227;50.942;4.016;2023-04-03T14:48:45;12.10;58.00
52273;DHT22;38227;50.942;4.016;2023-04-03T14:51:19;12.00;59.50
52273;DHT22;38227;50.942;4.016;2023-04-03T14:53:48;12.00;60.10
52273;DHT22;38227;50.942;4.016;2023-04-03T14:56:38;12.10;61.10
52273;DHT22;38227;50.942;4.016;2023-04-03T14:59:13;12.00;61.40
52273;DHT22;38227;50.942;4.016;2023-04-03T15:01:46;12.10;60.10
52273;DHT22;38227;50.942;4.016;2023-04-03T15:04:27;12.10;58.00
52273;DHT22;38227;50.942;4.016;2023-04-03T15:06:58;12.10;59.20
52273;DHT22;38227;50.942;4.016;2023-04-03T15:09:40;12.00;58.70
52273;DHT22;38227;50.942;4.016;2023-04-03T15:12:17;12.00;60.30
52273;DHT22;38227;50.942;4.016;2023-04-03T15:14:58;11.90;61.80
52273;DHT22;38227;50.942;4.016;2023-04-03T15:17:30;12.00;60.80
52273;DHT22;38227;50.942;4.016;2023-04-03T15:20:02;12.10;60.20
52273;DHT22;38227;50.942;4.016;2023-04-03T15:22:42;12.10;59.10
52273;DHT22;38227;50.942;4.016;2023-04-03T15:25:15;12.20;59.10
52273;DHT22;38227;50.942;4.016;2023-04-03T15:27:57;12.10;58.10
52273;DHT22;38227;50.942;4.016;2023-04-03T15:30:28;11.90;59.90
52273;DHT22;38227;50.942;4.016;2023-04-03T15:33:08;12.10;59.30
52273;DHT22;38227;50.942;4.016;2023-04-03T15:35:55;12.20;58.10
52273;DHT22;38227;50.942;4.016;2023-04-03T15:38:32;12.10;58.10
52273;DHT22;38227;50.942;4.016;2023-04-03T15:41:04;12.10;58.10
52273;DHT22;38227;50.942;4.016;2023-04-03T15:43:44;12.00;58.50
52273;DHT22;38227;50.942;4.016;2023-04-03T15:46:30;11.90;58.10
52273;DHT22;38227;50.942;4.016;2023-04-03T15:49:01;12.00;56.10
52273;DHT22;38227;50.942;4.016;2023-04-03T15:51:42;12.00;57.30
52273;DHT22;38227;50.942;4.016;2023-04-03T15:54:15;12.00;58.40
52273;DHT22;38227;50.942;4.016;2023-04-03T15:56:54;12.00;58.00
52273;DHT22;38227;50.942;4.016;2023-04-03T15:59:33;11.90;58.50
52273;DHT22;38227;50.942;4.016;2023-04-03T16:02:07;11.90;58.10
52273;DHT22;38227;50.942;4.016;2023-04-03T16:04:44;11.90;58.90
52273;DHT22;38227;50.942;4.016;2023-04-03T16:07:16;12.00;57.40
52273;DHT22;38227;50.942;4.016;2023-04-03T16:09:53;11.80;58.30
52273;DHT22;38227;50.942;4.016;2023-04-03T16:12:41;11.90;58.50
52273;DHT22;38227;50.942;4.016;2023-04-03T16:15:12;11.90;57.40
52273;DHT22;38227;50.942;4.016;2023-04-03T16:17:52;12.00;56.60
52273;DHT22;38227;50.942;4.016;2023-04-03T16:20:27;11.80;57.80
52273;DHT22;38227;50.942;4.016;2023-04-03T16:22:58;11.70;58.00
52273;DHT22;38227;50.942;4.016;2023-04-03T16:25:31;11.80;57.80
52273;DHT22;38227;50.942;4.016;2023-04-03T16:27:59;11.80;57.10
52273;DHT22;38227;50.942;4.016;2023-04-03T16:30:30;11.70;56.90
52273;DHT22;38227;50.942;4.016;2023-04-03T16:33:10;11.80;56.00
52273;DHT22;38227;50.942;4.016;2023-04-03T16:35:41;11.70;56.20
52273;DHT22;38227;50.942;4.016;2023-04-03T16:38:13;11.70;56.90
52273;DHT22;38227;50.942;4.016;2023-04-03T16:40:51;11.80;56.70
52273;DHT22;38227;50.942;4.016;2023-04-03T16:43:22;11.70;57.70
52273;DHT22;38227;50.942;4.016;2023-04-03T16:45:55;11.70;57.10
52273;DHT22;38227;50.942;4.016;2023-04-03T16:48:28;11.60;58.40
52273;DHT22;38227;50.942;4.016;2023-04-03T16:50:59;11.60;57.50
52273;DHT22;38227;50.942;4.016;2023-04-03T16:53:29;11.50;57.20
52273;DHT22;38227;50.942;4.016;2023-04-03T16:56:01;11.40;57.60
52273;DHT22;38227;50.942;4.016;2023-04-03T16:58:30;11.50;58.10
52273;DHT22;38227;50.942;4.016;2023-04-03T17:01:13;11.60;59.10
52273;DHT22;38227;50.942;4.016;2023-04-03T17:03:41;11.50;58.70
52273;DHT22;38227;50.942;4.016;2023-04-03T17:06:12;11.50;59.00
52273;DHT22;38227;50.942;4.016;2023-04-03T17:08:48;11.60;57.80
52273;DHT22;38227;50.942;4.016;2023-04-03T17:11:17;11.40;57.90
52273;DHT22;38227;50.942;4.016;2023-04-03T17:13:53;11.40;58.40
52273;DHT22;38227;50.942;4.016;2023-04-03T17:16:23;11.40;57.90
52273;DHT22;38227;50.942;4.016;2023-04-03T17:18:55;11.50;58.50
52273;DHT22;38227;50.942;4.016;2023-04-03T17:21:27;11.30;59.20
52273;DHT22;38227;50.942;4.016;2023-04-03T17:24:02;11.10;60.00
52273;DHT22;38227;50.942;4.016;2023-04-03T17:26:34;11.10;60.30
52273;DHT22;38227;50.942;4.016;2023-04-03T17:29:11;11.20;60.50
52273;DHT22;38227;50.942;4.016;2023-04-03T17:31:43;11.10;61.40
52273;DHT22;38227;50.942;4.016;2023-04-03T17:34:24;11.20;61.90
52273;DHT22;38227;50.942;4.016;2023-04-03T17:36:56;11.10;61.70
52273;DHT22;38227;50.942;4.016;2023-04-03T17:39:30;10.90;62.70
52273;DHT22;38227;50.942;4.016;2023-04-03T17:42:08;10.90;63.70
52273;DHT22;38227;50.942;4.016;2023-04-03T17:44:43;10.70;64.80
52273;DHT22;38227;50.942;4.016;2023-04-03T17:47:32;10.70;64.80
52273;DHT22;38227;50.942;4.016;2023-04-03T17:50:04;10.50;66.00
52273;DHT22;38227;50.942;4.016;2023-04-03T17:52:37;10.40;66.20
52273;DHT22;38227;50.942;4.016;2023-04-03T17:55:12;10.50;66.30
52273;DHT22;38227;50.942;4.016;2023-04-03T17:57:43;10.50;66.80
52273;DHT22;38227;50.942;4.016;2023-04-03T18:00:31;10.50;66.80
52273;DHT22;38227;50.942;4.016;2023-04-03T18:02:59;10.50;66.60
52273;DHT22;38227;50.942;4.016;2023-04-03T18:05:31;10.40;67.10
52273;DHT22;38227;50.942;4.016;2023-04-03T18:08:07;10.30;68.60